Redway, California
Current Conditions -  °F | °C
As of 5:50 PM on Monday 20 Oct 2014 (Local Time) from KFOT Reporting Station
Scattered Clouds Scattered Clouds  
Wind Chill: 57°   Ceiling: Unl
Heat Index: 57°   Visibility: 10mi
Dew Point: 54°   Wind: 3mph
Humidity: 88%   Direction: 170°S
Pressure: 29.94"   Gusts: NA
Location:  40.12°N, 123.82°W
Report Text: KFOT 210050Z AUTO 17003KT 10SM FEW018 FEW026 SCT034 14/12 A2994 RMK AO1
Loading
Personal Weather Stations






























Interactive Weather Map
Tropical Storm Tracking
New forecast layout! Learn more

10-Day Weather Forecast

Advertisements
Track Severe Weather on mobile